Terminal Aerodrome Forecast
Issued by NWS Charleston, WV

Current Version | Previous Version | Text Only | Print | Product List | Glossary Off
Versions: 1 2 3 4 5 6 7 8 9 10 11 12 13 14 15 16 17 18 19 20 21 22 23 24 25 26 27

843
FTUS41 KRLX 191138
TAFBKW
TAF
KBKW 191138Z 1912/2012 VRB03KT 1/4SM FG BKN002
     FM191400 20005KT 5SM BR SCT007
     FM191600 18005KT P6SM SCT150
     FM200700 15007KT 4SM -SHRA OVC030=

USA.gov is the U.S. government's official web portal to all federal, state and local government web resources and services.